EST,Max TemperatureF,Mean TemperatureF,Min TemperatureF,Max Dew PointF,MeanDew PointF,Min DewpointF,Max Humidity, Mean Humidity, Min Humidity, Max Sea Level PressureIn, Mean Sea Level PressureIn, Min Sea Level PressureIn, Max VisibilityMiles, Mean VisibilityMiles, Min VisibilityMiles, Max Wind SpeedMPH, Mean Wind SpeedMPH, Max Gust SpeedMPH,PrecipitationIn, CloudCover, Events, WindDirDegrees
2012-1-1,41,37,33,37,35,33,100,90,79,30.08,29.93,29.53,10,6,0,23,7,30,0.10,8,Fog-Rain,168
2012-1-2,41,30,19,38,23,9,92,73,53,29.73,29.58,29.50,10,6,0,20,10,29,0.07,7,Fog-Rain-Snow,273
2012-1-3,19,8,-3,10,2,-8,88,75,61,30.18,29.91,29.74,10,7,2,20,9,26,T,6,Snow,317
2012-1-4,19,7,-6,8,-2,-10,87,73,59,30.20,30.07,29.88,10,10,9,9,2,12,0.00,5,,138
2012-1-5,26,18,9,21,15,5,88,75,62,29.93,29.80,29.71,10,6,0,17,6,22,0.01,7,Fog-Snow,257
2012-1-6,30,21,11,22,16,7,92,81,69,29.92,29.81,29.70,10,8,1,10,2,14,0.02,6,Snow,161
2012-1-7,42,31,19,32,27,18,96,83,70,29.91,29.79,29.67,10,9,6,13,1,21,0.01,5,Snow,278
2012-1-8,36,23,9,30,17,7,83,73,63,30.35,30.17,29.89,10,10,5,20,8,28,T,7,Snow,322
2012-1-9,32,20,8,20,14,6,92,73,53,30.35,30.17,29.91,10,10,10,13,4,15,0.00,6,,178
2012-1-10,35,29,22,28,23,14,82,66,49,30.03,29.85,29.75,10,9,2,21,9,29,T,8,Snow,301
2012-1-11,28,19,10,21,12,7,84,71,57,30.18,30.09,29.98,10,10,9,14,2,18,0.00,5,,52
2012-1-12,31,29,27,29,26,23,100,88,75,30.07,29.75,29.50,10,3,0,15,3,20,0.30,8,Fog-Snow,162
2012-1-13,34,29,23,31,26,17,92,83,74,29.54,29.25,29.06,10,4,0,22,8,33,0.17,8,Fog-Rain-Snow,211
2012-1-14,26,9,-8,21,2,-11,88,79,69,30.16,29.87,29.50,10,7,2,18,8,24,0.01,5,Snow,333
2012-1-15,2,-4,-11,-8,-10,-16,92,79,65,30.62,30.34,30.06,10,8,4,14,5,18,0.00,4,,331
2012-1-16,22,3,-16,12,-5,-21,100,77,54,30.66,30.41,29.99,10,10,7,16,5,18,0.00,2,,168
2012-1-17,36,29,22,34,26,14,100,84,68,30.05,29.77,29.31,10,7,1,16,7,21,0.15,8,Rain-Snow,160
2012-1-18,44,24,4,38,13,-2,92,72,52,30.25,29.77,29.30,10,10,10,25,12,46,T,4,Rain,291
2012-1-19,21,8,-5,18,8,-9,91,72,52,30.33,30.07,29.89,10,6,1,23,7,29,0.03,4,Snow,171
2012-1-20,22,11,0,19,10,-7,92,70,47,30.36,30.05,29.86,10,6,1,17,7,24,0.04,5,Snow,284
2012-1-21,13,4,-5,5,-1,-8,95,79,62,30.44,30.28,30.18,10,5,1,6,0,7,0.03,6,Snow,20
2012-1-22,22,7,-9,14,0,-14,95,71,47,30.63,30.54,30.40,10,10,9,14,4,17,0.00,1,,169
2012-1-23,38,30,21,36,26,15,92,82,71,30.45,30.16,29.85,10,7,1,18,10,25,0.30,8,Rain-Snow,176
2012-1-24,46,39,32,40,33,22,100,78,56,30.06,29.87,29.77,10,7,1,18,7,28,0.01,8,Rain-Snow,237
2012-1-25,32,28,24,26,19,17,85,74,63,30.28,30.20,30.07,10,10,5,18,7,28,T,7,Snow,314
2012-1-26,32,25,17,27,21,14,92,71,49,30.29,30.11,29.92,10,6,2,13,2,17,0.09,6,Snow,153
2012-1-27,35,33,30,34,31,26,100,91,82,29.93,29.56,29.31,10,6,2,18,9,25,0.84,8,Rain-Snow,213
2012-1-28,37,34,30,29,26,21,85,72,59,29.99,29.86,29.74,10,9,2,25,8,33,T,6,Snow,221
2012-1-29,34,31,27,27,20,13,92,67,41,30.01,29.92,29.79,10,7,1,21,9,37,0.01,7,Snow,235
2012-1-30,31,22,13,27,18,7,92,72,52,30.29,30.06,29.90,10,6,1,20,7,25,0.02,7,Snow,312
2012-1-31,34,24,14,25,17,10,96,83,69,30.27,30.12,29.97,10,5,1,10,3,15,0.07,8,Snow,179